Terminal Aerodrome Forecast
Issued by NWS Newport/Morehead City, NC

Home | Current Version | Previous Version | Graphics & Text | Print | Product List | Glossary On
Versions: 1 2 3 4 5 6 7 8 9 10 11 12 13 14 15 16 17 18 19 20
594
FTUS42 KMHX 221207 AAA
TAFEWN
TAF AMD
KEWN 221207Z 2212/2312 01005KT P6SM BKN015
      TEMPO 2212/2213 OVC007
     FM221500 35006KT P6SM VCSH BKN025
     FM222000 34006KT P6SM -SHRA SCT025 BKN040
     FM230200 VRB03KT P6SM BKN020
     FM230800 VRB03KT P6SM BKN009=

USA.gov is the U.S. government's official web portal to all federal, state and local government web resources and services.